createdAt,value
2018-02-04T00:01:33.772Z,71.20
2018-02-04T00:03:59.951Z,71.50
2018-02-04T00:06:26.113Z,71.00
2018-02-04T00:08:53.056Z,72.00
2018-02-04T00:11:19.984Z,72.10
2018-02-04T00:13:46.144Z,72.10
2018-02-04T00:16:13.079Z,72.40
2018-02-04T00:18:39.388Z,72.30
2018-02-04T00:21:05.550Z,72.50
2018-02-04T00:23:31.719Z,72.50
2018-02-04T00:25:58.404Z,73.00
2018-02-04T00:28:25.590Z,73.60
2018-02-04T00:30:52.539Z,73.10
2018-02-04T00:33:18.723Z,73.10
2018-02-04T00:35:44.908Z,74.00
2018-02-04T00:38:11.928Z,73.70
2018-02-04T00:40:38.097Z,73.60
2018-02-04T00:43:04.280Z,73.10
2018-02-04T00:45:30.468Z,73.90
2018-02-04T00:47:57.376Z,73.70
2018-02-04T00:50:23.552Z,73.70
2018-02-04T00:52:50.475Z,73.50
2018-02-04T00:55:16.645Z,73.40
2018-02-04T00:57:42.816Z,73.60
2018-02-04T01:00:09.004Z,74.50
2018-02-04T01:02:35.912Z,73.20
2018-02-04T01:05:02.096Z,73.10
2018-02-04T01:07:29.006Z,73.20
2018-02-04T01:09:55.216Z,73.10
2018-02-04T01:12:21.357Z,73.80
2018-02-04T01:14:47.573Z,74.50
2018-02-04T01:17:13.780Z,74.10
2018-02-04T01:19:40.008Z,73.30
2018-02-04T01:22:06.939Z,73.70
2018-02-04T01:24:33.886Z,73.30
2018-02-04T01:27:00.843Z,73.30
2018-02-04T01:29:28.711Z,72.90
2018-02-04T01:31:54.872Z,72.70
2018-02-04T01:34:21.764Z,71.90
2018-02-04T01:36:47.944Z,71.90
2018-02-04T01:39:14.880Z,72.90
2018-02-04T01:41:41.119Z,72.90
2018-02-04T01:44:07.242Z,72.60
2018-02-04T01:46:34.164Z,73.80
2018-02-04T01:49:00.336Z,73.80
2018-02-04T01:51:26.503Z,73.50
2018-02-04T01:53:52.660Z,73.50
2018-02-04T01:56:18.831Z,73.70
2018-02-04T01:58:45.039Z,73.20
2018-02-04T02:01:11.224Z,73.00
2018-02-04T02:03:38.203Z,73.20
2018-02-04T02:06:04.480Z,73.20
2018-02-04T02:08:30.664Z,73.60
2018-02-04T02:10:56.819Z,73.50
2018-02-04T02:13:23.061Z,73.40
2018-02-04T02:15:49.237Z,73.80
2018-02-04T02:18:16.129Z,73.00
2018-02-04T02:20:42.347Z,73.00
2018-02-04T02:23:08.580Z,73.20
2018-02-04T02:25:34.784Z,73.90
2018-02-04T02:28:01.960Z,72.60
2018-02-04T02:30:28.302Z,72.60
2018-02-04T02:32:54.486Z,73.70
2018-02-04T02:35:20.747Z,73.60
2018-02-04T02:37:47.672Z,73.20
2018-02-04T02:40:13.837Z,73.20
2018-02-04T02:42:40.793Z,72.40
2018-02-04T02:45:07.743Z,72.80
2018-02-04T02:47:33.939Z,72.70
2018-02-04T02:50:00.883Z,73.70
2018-02-04T02:52:27.080Z,73.60
2018-02-04T02:54:53.243Z,72.60
2018-02-04T02:57:19.455Z,73.80
2018-02-04T02:59:45.659Z,74.10
2018-02-04T03:02:12.595Z,74.30
2018-02-04T03:04:39.597Z,74.50
2018-02-04T03:07:05.812Z,74.50
2018-02-04T03:09:31.976Z,74.10
2018-02-04T03:11:58.215Z,74.20
2018-02-04T03:14:25.185Z,74.70
2018-02-04T03:16:51.407Z,74.70
2018-02-04T03:19:17.591Z,75.00
2018-02-04T03:21:43.731Z,74.40
2018-02-04T03:24:09.933Z,74.10
2018-02-04T03:26:37.604Z,74.70
2018-02-04T03:29:04.600Z,74.90
2018-02-04T03:31:31.764Z,75.30
2018-02-04T03:33:58.028Z,75.30
2018-02-04T03:36:24.195Z,75.10
2018-02-04T03:38:51.100Z,73.60
2018-02-04T03:41:17.311Z,73.50
2018-02-04T03:43:43.556Z,73.90
2018-02-04T03:46:09.722Z,75.00
2018-02-04T03:48:36.660Z,75.10
2018-02-04T03:51:02.825Z,74.90
2018-02-04T03:53:29.744Z,74.60
2018-02-04T03:55:55.927Z,74.60
2018-02-04T03:58:22.081Z,74.70
2018-02-04T04:00:48.243Z,74.30
2018-02-04T04:03:14.459Z,74.30
2018-02-04T04:05:40.628Z,74.60
2018-02-04T04:08:07.550Z,75.10
2018-02-04T04:10:33.753Z,75.00
2018-02-04T04:12:59.916Z,75.00
2018-02-04T04:15:26.100Z,74.70
2018-02-04T04:17:53.028Z,71.80
2018-02-04T04:20:19.180Z,71.70
2018-02-04T04:22:46.106Z,73.30
2018-02-04T04:25:12.319Z,73.20
2018-02-04T04:27:38.473Z,74.00
2018-02-04T04:30:07.133Z,74.20
2018-02-04T04:32:33.521Z,74.30
2018-02-04T04:35:00.452Z,73.80
2018-02-04T04:37:27.384Z,73.80
2018-02-04T04:39:53.594Z,73.70
2018-02-04T04:42:19.767Z,73.20
2018-02-04T04:44:45.912Z,73.70
2018-02-04T04:47:12.831Z,73.50
2018-02-04T04:49:38.991Z,73.90
2018-02-04T04:52:06.639Z,74.00
2018-02-04T04:54:32.861Z,74.00
2018-02-04T04:56:59.058Z,73.90
2018-02-04T04:59:25.216Z,72.50
2018-02-04T05:01:51.416Z,72.20
2018-02-04T05:04:17.623Z,72.70
2018-02-04T05:06:44.568Z,72.30
2018-02-04T05:09:10.881Z,72.10
2018-02-04T05:11:37.044Z,72.10
2018-02-04T05:14:03.956Z,73.20
2018-02-04T05:16:30.156Z,73.20
2018-02-04T05:18:56.324Z,72.90
2018-02-04T05:21:22.494Z,72.00
2018-02-04T05:23:48.663Z,71.70
2018-02-04T05:26:14.820Z,72.90
2018-02-04T05:28:41.024Z,73.90
2018-02-04T05:31:07.301Z,74.40
2018-02-04T05:33:33.643Z,73.80
2018-02-04T05:35:59.801Z,74.00
2018-02-04T05:38:25.978Z,73.80
2018-02-04T05:40:52.127Z,74.70
2018-02-04T05:43:18.288Z,74.20
2018-02-04T05:45:44.452Z,74.30
2018-02-04T05:48:11.371Z,73.40
2018-02-04T05:50:37.535Z,73.30
2018-02-04T05:53:04.440Z,73.10
2018-02-04T05:55:30.616Z,73.10
2018-02-04T05:57:57.532Z,72.80
2018-02-04T06:00:23.737Z,72.80
2018-02-04T06:02:49.903Z,72.70
2018-02-04T06:05:16.056Z,70.80
2018-02-04T06:07:42.288Z,71.30
2018-02-04T06:10:08.440Z,71.50
2018-02-04T06:12:34.606Z,71.20
2018-02-04T06:15:00.788Z,72.50
2018-02-04T06:17:26.968Z,72.90
2018-02-04T06:19:53.223Z,73.10
2018-02-04T06:22:19.419Z,73.60
2018-02-04T06:24:46.335Z,72.70
2018-02-04T06:27:13.278Z,73.60
2018-02-04T06:29:39.479Z,73.60
2018-02-04T06:32:05.712Z,73.90
2018-02-04T06:34:31.958Z,74.00
2018-02-04T06:36:58.118Z,73.50
2018-02-04T06:39:24.288Z,73.60
2018-02-04T06:41:50.487Z,73.60
2018-02-04T06:44:16.665Z,73.30
2018-02-04T06:46:42.816Z,72.70
2018-02-04T06:49:08.975Z,72.50
2018-02-04T06:51:35.164Z,73.10
2018-02-04T06:54:01.327Z,73.70
2018-02-04T06:56:27.483Z,73.30
2018-02-04T06:58:53.656Z,74.00
2018-02-04T07:01:19.833Z,75.30
2018-02-04T07:03:46.011Z,75.10
2018-02-04T07:06:12.979Z,75.50
2018-02-04T07:08:39.136Z,75.40
2018-02-04T07:11:05.302Z,75.30
2018-02-04T07:13:32.211Z,74.50
2018-02-04T07:15:58.401Z,74.50
2018-02-04T07:18:24.535Z,74.50
2018-02-04T07:20:51.475Z,73.50
2018-02-04T07:23:18.400Z,73.70
2018-02-04T07:25:44.570Z,73.80
